Time;durP1;ratioP1;P1;durP2;ratioP2;P2;SDS_P1;SDS_P2;PMS_P1;PMS_P2;Temp;Humidity;BMP_temperature;BMP_pressure;BME280_temperature;BME280_humidity;BME280_pressure;Samples;Min_cycle;Max_cycle;Signal;HPM_P1;HPM_P2
2022/05/07 00:00:38;;;;;;;5.25;4.75;;;;;;;;;;5045349;28;20476;-50
2022/05/07 00:03:04;;;;;;;14.13;12.63;;;;;;;;;;5047336;28;20390;-55
2022/05/07 00:05:31;;;;;;;10.63;8.80;;;;;;;;;;5047088;28;20490;-56
2022/05/07 00:07:57;;;;;;;10.25;8.93;;;;;;;;;;5045574;28;20422;-56
2022/05/07 00:10:23;;;;;;;7.97;5.45;;;;;;;;;;5047337;28;20395;-56
2022/05/07 00:12:49;;;;;;;5.15;4.38;;;;;;;;;;5047927;28;20382;-56
2022/05/07 00:15:15;;;;;;;4.40;3.72;;;;;;;;;;5048003;28;20876;-55
2022/05/07 00:20:27;;;;;;;5.23;3.70;;;;;;;;;;5033286;28;20474;-56
2022/05/07 00:22:53;;;;;;;4.90;3.60;;;;;;;;;;5049374;28;20624;-53
2022/05/07 00:25:19;;;;;;;28.83;22.17;;;;;;;;;;5049907;28;20426;-56
2022/05/07 00:27:45;;;;;;;31.05;25.23;;;;;;;;;;5050521;28;20405;-55
2022/05/07 00:30:11;;;;;;;11.68;10.07;;;;;;;;;;5034830;28;20418;-54
2022/05/07 00:32:38;;;;;;;15.00;12.15;;;;;;;;;;5033430;28;20441;-56
2022/05/07 00:35:05;;;;;;;6.65;5.10;;;;;;;;;;5047512;28;20387;-56
2022/05/07 00:37:31;;;;;;;6.28;3.92;;;;;;;;;;5029842;28;20418;-57
2022/05/07 00:39:57;;;;;;;5.60;3.75;;;;;;;;;;5047846;28;20441;-55
2022/05/07 00:42:23;;;;;;;23.38;20.55;;;;;;;;;;5047571;28;20401;-55
2022/05/07 00:44:50;;;;;;;7.03;6.00;;;;;;;;;;5046545;28;20399;-56
2022/05/07 00:47:16;;;;;;;7.47;6.63;;;;;;;;;;5031853;28;20918;-57
2022/05/07 00:49:46;;;;;;;6.57;4.77;;;;;;;;;;5049594;28;20379;-56
2022/05/07 00:52:13;;;;;;;4.88;3.70;;;;;;;;;;5049488;28;20399;-57
2022/05/07 00:54:39;;;;;;;5.22;4.05;;;;;;;;;;5049010;28;20493;-57
2022/05/07 00:57:05;;;;;;;6.45;3.85;;;;;;;;;;5050308;28;20383;-56
2022/05/07 00:59:31;;;;;;;6.28;4.32;;;;;;;;;;5049952;28;20383;-56
2022/05/07 01:01:57;;;;;;;5.07;3.83;;;;;;;;;;5050918;28;20395;-56
2022/05/07 01:04:23;;;;;;;6.33;4.17;;;;;;;;;;5049863;28;20474;-57
2022/05/07 01:06:50;;;;;;;5.53;3.93;;;;;;;;;;5048999;28;20505;-55
2022/05/07 01:09:16;;;;;;;5.00;4.47;;;;;;;;;;5050325;28;20495;-56
2022/05/07 01:11:42;;;;;;;8.47;6.07;;;;;;;;;;5050850;28;20394;-57
2022/05/07 01:14:08;;;;;;;10.93;7.90;;;;;;;;;;5048378;28;20461;-57
2022/05/07 01:16:34;;;;;;;10.40;8.02;;;;;;;;;;5047575;28;20399;-55
2022/05/07 01:19:00;;;;;;;11.70;7.88;;;;;;;;;;5048159;28;20683;-56
2022/05/07 01:21:27;;;;;;;9.13;7.53;;;;;;;;;;5032346;28;20516;-54
2022/05/07 01:23:53;;;;;;;9.63;7.93;;;;;;;;;;5046714;28;20445;-57
2022/05/07 01:26:23;;;;;;;10.43;7.82;;;;;;;;;;5030766;28;20396;-57
2022/05/07 01:28:50;;;;;;;7.43;6.20;;;;;;;;;;5046623;28;20497;-55
2022/05/07 01:31:19;;;;;;;7.03;6.27;;;;;;;;;;5053698;28;20445;-55
2022/05/07 01:33:45;;;;;;;8.80;6.35;;;;;;;;;;5072360;28;20888;-57
2022/05/07 01:36:11;;;;;;;8.90;6.75;;;;;;;;;;5071634;28;20403;-55
2022/05/07 01:38:37;;;;;;;7.90;5.95;;;;;;;;;;5070248;28;20379;-55
2022/05/07 01:41:03;;;;;;;7.55;5.95;;;;;;;;;;5070433;28;20387;-56
2022/05/07 01:43:32;;;;;;;7.43;6.17;;;;;;;;;;5071256;28;20452;-57
2022/05/07 01:48:34;;;;;;;7.28;6.20;;;;;;;;;;5156022;22;20851;-55
2022/05/07 01:51:00;;;;;;;7.47;6.30;;;;;;;;;;5013123;28;20395;-54
2022/05/07 01:53:26;;;;;;;8.93;5.80;;;;;;;;;;5010836;28;20579;-54
2022/05/07 01:55:53;;;;;;;8.00;6.10;;;;;;;;;;5027596;28;20429;-55
2022/05/07 01:58:19;;;;;;;8.07;6.00;;;;;;;;;;5026672;28;20485;-54
2022/05/07 02:00:45;;;;;;;8.57;6.07;;;;;;;;;;5008536;28;20387;-56
2022/05/07 02:03:11;;;;;;;8.73;6.83;;;;;;;;;;5007451;28;20679;-56
2022/05/07 02:05:37;;;;;;;11.73;10.53;;;;;;;;;;5007998;28;20387;-58
2022/05/07 02:08:03;;;;;;;7.22;5.93;;;;;;;;;;5009037;28;20430;-56
2022/05/07 02:10:29;;;;;;;6.50;5.90;;;;;;;;;;5010696;28;20382;-56
2022/05/07 02:12:56;;;;;;;6.55;5.35;;;;;;;;;;5008687;28;20383;-55
2022/05/07 02:15:23;;;;;;;7.03;5.60;;;;;;;;;;5007183;28;20520;-55
2022/05/07 02:17:48;;;;;;;7.13;5.47;;;;;;;;;;5009248;28;20379;-57
2022/05/07 02:20:15;;;;;;;6.78;5.13;;;;;;;;;;5010784;28;20676;-57
2022/05/07 02:22:41;;;;;;;7.22;5.05;;;;;;;;;;5010727;28;20395;-52
2022/05/07 02:25:07;;;;;;;7.18;5.75;;;;;;;;;;5027619;28;20793;-53
2022/05/07 02:27:33;;;;;;;7.47;5.95;;;;;;;;;;5009298;28;20682;-57
2022/05/07 02:29:59;;;;;;;6.47;5.38;;;;;;;;;;5028009;28;20375;-58
2022/05/07 02:32:25;;;;;;;6.38;5.78;;;;;;;;;;5010401;28;20379;-56
2022/05/07 02:34:51;;;;;;;7.85;5.80;;;;;;;;;;5010344;28;20392;-58
2022/05/07 02:37:17;;;;;;;8.50;6.70;;;;;;;;;;5027616;28;20673;-54
2022/05/07 02:39:43;;;;;;;8.88;7.07;;;;;;;;;;5008557;28;20740;-57
2022/05/07 02:44:54;;;;;;;8.88;6.95;;;;;;;;;;5024112;28;20706;-55
2022/05/07 02:47:20;;;;;;;8.50;7.32;;;;;;;;;;5023921;28;20422;-53
2022/05/07 02:49:46;;;;;;;7.32;6.40;;;;;;;;;;5004077;28;20404;-56
2022/05/07 02:52:12;;;;;;;7.97;6.97;;;;;;;;;;5007371;28;20424;-57
2022/05/07 02:54:38;;;;;;;10.32;7.55;;;;;;;;;;5008784;28;20389;-53
2022/05/07 02:57:04;;;;;;;7.88;7.05;;;;;;;;;;5010666;28;20384;-58
2022/05/07 02:59:31;;;;;;;10.20;7.68;;;;;;;;;;5009112;28;20381;-55
2022/05/07 03:01:57;;;;;;;9.68;7.88;;;;;;;;;;5010726;28;20372;-50
2022/05/07 03:04:23;;;;;;;7.68;6.50;;;;;;;;;;5011372;28;20388;-57
2022/05/07 03:06:49;;;;;;;7.05;6.35;;;;;;;;;;5011233;28;20385;-54
2022/05/07 03:09:15;;;;;;;8.02;6.90;;;;;;;;;;5013066;28;20413;-52
2022/05/07 03:11:43;;;;;;;9.07;8.10;;;;;;;;;;5012749;28;20407;-54
2022/05/07 03:14:08;;;;;;;10.90;8.37;;;;;;;;;;5013801;28;20477;-52
2022/05/07 03:16:35;;;;;;;9.13;7.53;;;;;;;;;;5014679;28;20455;-55
2022/05/07 03:19:02;;;;;;;8.82;7.88;;;;;;;;;;5013352;28;20546;-58
2022/05/07 03:21:28;;;;;;;9.35;8.07;;;;;;;;;;5015054;28;20749;-55
2022/05/07 03:26:58;;;;;;;12.68;10.93;;;;;;;;;;5015530;28;20427;-55
2022/05/07 03:29:24;;;;;;;12.05;10.25;;;;;;;;;;5012436;28;20420;-57
2022/05/07 03:31:50;;;;;;;11.70;10.48;;;;;;;;;;5011809;28;20694;-56
2022/05/07 03:34:16;;;;;;;12.27;10.45;;;;;;;;;;5015489;28;20427;-52
2022/05/07 03:36:42;;;;;;;13.63;11.80;;;;;;;;;;5015171;28;20479;-56
2022/05/07 03:39:08;;;;;;;12.38;10.93;;;;;;;;;;5016023;28;20377;-58
2022/05/07 03:41:35;;;;;;;12.70;10.75;;;;;;;;;;5015068;28;20397;-56
2022/05/07 03:44:00;;;;;;;13.63;10.90;;;;;;;;;;5014476;28;20671;-57
2022/05/07 03:46:26;;;;;;;11.83;10.63;;;;;;;;;;5014617;28;20397;-52
2022/05/07 03:48:52;;;;;;;13.47;11.83;;;;;;;;;;5017397;28;20450;-55
2022/05/07 03:51:18;;;;;;;13.43;11.17;;;;;;;;;;5035901;28;21377;-54
2022/05/07 03:53:45;;;;;;;14.80;13.27;;;;;;;;;;5036202;28;20387;-54
2022/05/07 03:59:15;;;;;;;13.85;12.35;;;;;;;;;;5035744;28;20437;-56
2022/05/07 04:01:41;;;;;;;14.98;13.25;;;;;;;;;;5016035;28;20387;-57
2022/05/07 04:04:07;;;;;;;16.35;13.07;;;;;;;;;;5017306;28;20482;-56
2022/05/07 04:06:33;;;;;;;14.87;13.37;;;;;;;;;;5017448;28;20755;-56
2022/05/07 04:08:59;;;;;;;15.13;13.53;;;;;;;;;;5017922;28;20426;-56
2022/05/07 04:11:25;;;;;;;14.03;12.53;;;;;;;;;;5014524;28;20791;-56
2022/05/07 04:13:51;;;;;;;14.90;13.30;;;;;;;;;;5013753;28;20775;-58
2022/05/07 04:16:17;;;;;;;15.13;13.40;;;;;;;;;;5013055;28;20431;-54
2022/05/07 04:18:43;;;;;;;16.90;14.25;;;;;;;;;;5012562;28;20495;-56
2022/05/07 04:21:09;;;;;;;15.43;13.70;;;;;;;;;;5031279;28;20383;-54
2022/05/07 04:23:35;;;;;;;15.67;14.00;;;;;;;;;;5030042;28;20511;-52
2022/05/07 04:26:01;;;;;;;17.17;14.73;;;;;;;;;;5014218;28;20419;-58
2022/05/07 04:28:27;;;;;;;15.93;13.70;;;;;;;;;;5016314;28;20418;-55
2022/05/07 04:30:53;;;;;;;18.00;13.73;;;;;;;;;;5016716;28;20407;-58
2022/05/07 04:33:19;;;;;;;16.15;14.40;;;;;;;;;;5032062;28;20450;-56
2022/05/07 04:35:48;;;;;;;16.17;14.20;;;;;;;;;;5012559;28;20379;-53
2022/05/07 04:38:14;;;;;;;16.05;13.50;;;;;;;;;;5014214;28;20571;-56
2022/05/07 04:40:40;;;;;;;16.17;14.57;;;;;;;;;;5030483;28;20379;-56
2022/05/07 04:43:06;;;;;;;21.38;17.88;;;;;;;;;;5012197;28;20806;-54
2022/05/07 04:45:34;;;;;;;20.20;18.13;;;;;;;;;;5011349;28;20469;-56
2022/05/07 04:47:59;;;;;;;17.93;14.93;;;;;;;;;;5012940;28;20573;-57
2022/05/07 04:50:26;;;;;;;17.17;15.17;;;;;;;;;;5012351;28;20428;-55
2022/05/07 04:52:52;;;;;;;17.33;15.52;;;;;;;;;;5012258;28;20425;-57
2022/05/07 04:55:18;;;;;;;17.92;16.02;;;;;;;;;;5011527;28;20447;-56
2022/05/07 04:57:44;;;;;;;18.60;16.65;;;;;;;;;;5010244;28;20643;-55
2022/05/07 05:00:10;;;;;;;21.70;17.35;;;;;;;;;;5010029;28;20411;-55
2022/05/07 05:02:36;;;;;;;18.95;16.95;;;;;;;;;;5008921;28;20417;-56
2022/05/07 05:05:02;;;;;;;19.20;16.13;;;;;;;;;;5007921;28;20517;-56
2022/05/07 05:07:28;;;;;;;21.30;17.77;;;;;;;;;;5008167;28;20613;-54
2022/05/07 05:09:54;;;;;;;20.67;18.53;;;;;;;;;;5009877;28;20720;-52
2022/05/07 05:12:22;;;;;;;21.30;19.05;;;;;;;;;;5007424;28;20671;-57
2022/05/07 05:15:07;;;;;;;23.47;20.80;;;;;;;;;;5005602;28;20468;-58
2022/05/07 05:17:33;;;;;;;23.55;21.08;;;;;;;;;;5002211;28;20392;-58
2022/05/07 05:20:00;;;;;;;21.83;19.63;;;;;;;;;;5003942;28;20924;-58
2022/05/07 05:22:26;;;;;;;22.10;19.90;;;;;;;;;;5002830;28;20941;-55
2022/05/07 05:24:53;;;;;;;24.47;21.83;;;;;;;;;;5002768;28;20822;-57
2022/05/07 05:27:19;;;;;;;25.73;21.75;;;;;;;;;;5004039;28;20667;-55
2022/05/07 05:29:45;;;;;;;25.03;21.43;;;;;;;;;;5004600;28;20502;-54
2022/05/07 05:32:17;;;;;;;24.60;21.53;;;;;;;;;;5004262;28;20389;-56
2022/05/07 05:34:52;;;;;;;28.57;22.53;;;;;;;;;;5005124;28;20419;-57
2022/05/07 05:37:18;;;;;;;24.67;21.90;;;;;;;;;;5007557;28;20380;-57
2022/05/07 05:39:44;;;;;;;22.65;20.20;;;;;;;;;;5009487;28;20387;-54
2022/05/07 05:42:11;;;;;;;24.63;21.35;;;;;;;;;;5009105;28;20381;-54
2022/05/07 05:44:38;;;;;;;25.08;21.40;;;;;;;;;;5007902;28;20793;-54
2022/05/07 05:47:05;;;;;;;23.58;20.77;;;;;;;;;;5007740;28;20397;-54
2022/05/07 05:49:31;;;;;;;24.27;21.40;;;;;;;;;;5008124;28;20408;-57
2022/05/07 05:51:57;;;;;;;22.80;20.25;;;;;;;;;;5007806;28;20396;-57
2022/05/07 05:54:24;;;;;;;22.73;19.63;;;;;;;;;;5010779;28;20391;-57
2022/05/07 05:56:51;;;;;;;22.77;20.10;;;;;;;;;;5020062;28;20456;-51
2022/05/07 05:59:17;;;;;;;26.38;21.05;;;;;;;;;;4992506;28;20488;-55
2022/05/07 06:01:43;;;;;;;21.77;19.45;;;;;;;;;;4991836;28;20402;-56
2022/05/07 06:04:10;;;;;;;20.02;17.85;;;;;;;;;;4992373;28;20398;-56
2022/05/07 06:06:36;;;;;;;23.53;18.67;;;;;;;;;;4993272;28;20678;-58
2022/05/07 06:09:02;;;;;;;21.30;17.97;;;;;;;;;;4986286;28;20422;-57
2022/05/07 06:11:28;;;;;;;20.80;17.33;;;;;;;;;;4986406;28;20473;-56
2022/05/07 06:13:54;;;;;;;19.08;16.85;;;;;;;;;;4985123;28;20489;-53
2022/05/07 06:16:20;;;;;;;17.67;15.80;;;;;;;;;;4986184;28;20387;-56
2022/05/07 06:18:46;;;;;;;17.95;15.20;;;;;;;;;;4985420;28;20416;-55
2022/05/07 06:21:12;;;;;;;20.15;16.50;;;;;;;;;;4983915;28;20405;-55
2022/05/07 06:23:38;;;;;;;16.48;14.68;;;;;;;;;;4985392;28;20403;-56
2022/05/07 06:28:49;;;;;;;15.98;13.38;;;;;;;;;;4990632;28;20728;-57
2022/05/07 06:31:17;;;;;;;16.60;14.20;;;;;;;;;;4987879;28;20448;-55
2022/05/07 06:33:42;;;;;;;16.33;13.50;;;;;;;;;;4990257;28;20382;-55
2022/05/07 06:36:09;;;;;;;14.10;12.60;;;;;;;;;;4989789;28;20394;-55
2022/05/07 06:38:35;;;;;;;15.50;13.00;;;;;;;;;;4989054;28;20437;-52
2022/05/07 06:41:02;;;;;;;13.30;11.60;;;;;;;;;;4987511;28;20402;-54
2022/05/07 06:43:32;;;;;;;11.07;9.90;;;;;;;;;;4987133;28;20465;-54
2022/05/07 06:45:59;;;;;;;14.18;11.13;;;;;;;;;;4988765;28;20806;-55
2022/05/07 06:48:25;;;;;;;11.73;9.73;;;;;;;;;;4988124;28;20418;-58
2022/05/07 06:50:54;;;;;;;9.85;8.85;;;;;;;;;;4987002;28;20618;-53
2022/05/07 06:53:21;;;;;;;10.38;9.27;;;;;;;;;;4986248;28;20481;-55
2022/05/07 06:55:58;;;;;;;12.05;9.18;;;;;;;;;;4984293;28;20394;-56
2022/05/07 06:58:26;;;;;;;10.10;7.97;;;;;;;;;;4981985;28;20458;-57
2022/05/07 07:00:52;;;;;;;11.13;8.60;;;;;;;;;;4979304;28;20762;-56
2022/05/07 07:03:18;;;;;;;11.70;9.03;;;;;;;;;;4981921;28;20482;-53
2022/05/07 07:05:47;;;;;;;10.80;8.40;;;;;;;;;;4983132;28;20390;-57
2022/05/07 07:08:13;;;;;;;11.32;8.68;;;;;;;;;;4984992;28;20666;-56
2022/05/07 07:10:42;;;;;;;7.35;6.65;;;;;;;;;;4986694;28;20681;-58
2022/05/07 07:13:08;;;;;;;13.70;9.57;;;;;;;;;;4990161;28;20737;-57
2022/05/07 07:15:35;;;;;;;11.75;9.60;;;;;;;;;;4990003;28;20656;-54
2022/05/07 07:18:04;;;;;;;10.35;9.10;;;;;;;;;;4989835;28;20397;-57
2022/05/07 07:20:31;;;;;;;12.23;9.40;;;;;;;;;;4990256;28;20437;-57
2022/05/07 07:22:57;;;;;;;10.77;9.47;;;;;;;;;;4987987;28;20549;-57
2022/05/07 07:25:23;;;;;;;14.70;9.57;;;;;;;;;;4987603;28;20607;-53
2022/05/07 07:27:48;;;;;;;12.70;9.73;;;;;;;;;;4985745;28;20642;-56
2022/05/07 07:30:15;;;;;;;13.07;9.40;;;;;;;;;;4984948;28;20402;-55
2022/05/07 07:32:41;;;;;;;11.20;8.43;;;;;;;;;;4988497;28;20393;-54
2022/05/07 07:35:07;;;;;;;10.10;7.82;;;;;;;;;;4988469;28;20387;-56
2022/05/07 07:37:33;;;;;;;8.32;6.85;;;;;;;;;;4987458;28;20402;-57
2022/05/07 07:40:00;;;;;;;7.72;6.25;;;;;;;;;;4985590;28;20402;-56
2022/05/07 07:42:27;;;;;;;7.57;5.38;;;;;;;;;;4987654;28;20385;-54
2022/05/07 07:47:59;;;;;;;8.60;5.53;;;;;;;;;;4965941;28;20423;-53
2022/05/07 07:50:26;;;;;;;7.22;5.10;;;;;;;;;;5014375;28;20410;-55
2022/05/07 07:52:53;;;;;;;7.25;4.78;;;;;;;;;;4990842;28;20515;-53
2022/05/07 07:55:19;;;;;;;7.03;4.38;;;;;;;;;;4988819;28;20856;-54
2022/05/07 07:57:45;;;;;;;6.65;5.13;;;;;;;;;;4990321;28;20856;-55
2022/05/07 08:00:12;;;;;;;7.07;4.45;;;;;;;;;;4989410;28;20398;-52
2022/05/07 08:02:50;;;;;;;7.75;4.97;;;;;;;;;;4986478;28;20386;-56
2022/05/07 08:05:17;;;;;;;8.47;5.10;;;;;;;;;;4985658;28;20575;-57
2022/05/07 08:13:14;;;;;;;8.60;5.00;;;;;;;;;;4986498;28;20530;-54
2022/05/07 08:15:40;;;;;;;10.32;5.38;;;;;;;;;;4984889;28;20382;-57
2022/05/07 08:18:06;;;;;;;6.72;5.05;;;;;;;;;;4985856;28;20863;-55
2022/05/07 08:20:32;;;;;;;6.82;5.10;;;;;;;;;;4985097;28;20532;-56
2022/05/07 08:22:58;;;;;;;9.20;5.28;;;;;;;;;;4982995;28;20790;-54
2022/05/07 08:25:24;;;;;;;6.68;4.57;;;;;;;;;;4984568;28;20657;-57
2022/05/07 08:27:51;;;;;;;7.75;5.55;;;;;;;;;;4987350;28;20422;-55
2022/05/07 08:30:17;;;;;;;9.88;5.65;;;;;;;;;;4985957;28;20706;-58
2022/05/07 08:32:43;;;;;;;8.63;5.22;;;;;;;;;;4987928;28;20391;-57
2022/05/07 08:35:09;;;;;;;8.02;5.80;;;;;;;;;;4988782;28;20504;-56
2022/05/07 08:37:35;;;;;;;8.80;5.60;;;;;;;;;;4989028;28;20393;-56
2022/05/07 08:40:04;;;;;;;8.48;4.30;;;;;;;;;;4988803;28;20394;-57
2022/05/07 08:42:30;;;;;;;5.82;4.50;;;;;;;;;;4989800;28;20415;-58
2022/05/07 08:45:00;;;;;;;5.88;4.60;;;;;;;;;;4990773;28;20399;-52
2022/05/07 08:47:26;;;;;;;7.40;5.60;;;;;;;;;;4988296;28;20393;-54
2022/05/07 08:49:55;;;;;;;5.93;4.45;;;;;;;;;;4987076;28;20698;-55
2022/05/07 08:52:24;;;;;;;7.60;4.53;;;;;;;;;;4988373;28;20485;-55
2022/05/07 08:54:50;;;;;;;7.50;5.20;;;;;;;;;;4986063;28;20383;-57
2022/05/07 08:57:16;;;;;;;6.90;5.13;;;;;;;;;;4984870;28;20383;-58
2022/05/07 08:59:43;;;;;;;5.53;4.65;;;;;;;;;;4985066;28;20675;-58
2022/05/07 09:02:09;;;;;;;6.60;4.90;;;;;;;;;;4985716;28;20389;-57
2022/05/07 09:04:38;;;;;;;6.38;4.32;;;;;;;;;;4985978;28;20742;-58
2022/05/07 09:07:05;;;;;;;5.82;4.40;;;;;;;;;;4983810;28;20715;-57
2022/05/07 09:09:31;;;;;;;7.22;4.28;;;;;;;;;;4983910;28;20497;-56
2022/05/07 09:11:58;;;;;;;9.95;5.20;;;;;;;;;;4983287;28;20770;-58
2022/05/07 09:14:31;;;;;;;6.32;4.15;;;;;;;;;;4983497;28;20546;-55
2022/05/07 09:17:00;;;;;;;7.85;4.10;;;;;;;;;;4985380;28;20679;-55
2022/05/07 09:19:28;;;;;;;8.15;4.90;;;;;;;;;;4988227;28;20810;-53
2022/05/07 09:22:14;;;;;;;6.32;4.82;;;;;;;;;;4984763;28;20484;-56
2022/05/07 09:24:40;;;;;;;7.03;4.53;;;;;;;;;;4985948;28;20448;-55
2022/05/07 09:30:10;;;;;;;8.87;4.73;;;;;;;;;;4986034;28;20701;-54
2022/05/07 09:32:37;;;;;;;7.28;4.90;;;;;;;;;;4984970;28;20507;-57
2022/05/07 09:38:01;;;;;;;6.78;4.90;;;;;;;;;;4986177;28;20445;-56
2022/05/07 09:40:27;;;;;;;8.40;4.80;;;;;;;;;;4985015;28;20543;-56
2022/05/07 09:42:57;;;;;;;7.45;5.40;;;;;;;;;;4981667;28;20383;-58
2022/05/07 09:45:26;;;;;;;6.25;4.80;;;;;;;;;;4983205;28;20410;-55
2022/05/07 09:47:52;;;;;;;9.32;4.88;;;;;;;;;;4982508;28;20421;-55
2022/05/07 09:50:43;;;;;;;8.25;4.35;;;;;;;;;;4983597;28;20667;-53
2022/05/07 09:58:47;;;;;;;4.70;3.58;;;;;;;;;;4985349;28;20402;-56
2022/05/07 10:01:17;;;;;;;6.38;3.67;;;;;;;;;;4985170;28;20843;-57
2022/05/07 10:04:05;;;;;;;5.60;3.80;;;;;;;;;;4985740;28;20402;-52
2022/05/07 10:06:50;;;;;;;4.45;3.40;;;;;;;;;;4957424;28;20383;-55
2022/05/07 10:09:37;;;;;;;6.15;3.78;;;;;;;;;;4987668;28;20553;-55
2022/05/07 10:12:03;;;;;;;5.03;3.30;;;;;;;;;;4989180;28;20384;-55
2022/05/07 10:14:31;;;;;;;6.35;4.15;;;;;;;;;;4989328;28;20398;-57
2022/05/07 10:16:59;;;;;;;8.63;6.00;;;;;;;;;;4990909;28;20409;-57
2022/05/07 10:19:42;;;;;;;8.07;6.57;;;;;;;;;;4989195;28;20386;-58
2022/05/07 10:22:25;;;;;;;8.88;6.97;;;;;;;;;;4989786;28;21071;-54
2022/05/07 10:25:11;;;;;;;8.27;6.45;;;;;;;;;;4987179;28;20821;-58
2022/05/07 10:27:38;;;;;;;7.65;6.32;;;;;;;;;;4981508;28;20449;-56
2022/05/07 10:30:13;;;;;;;9.25;6.43;;;;;;;;;;4982043;28;20445;-56
2022/05/07 10:32:45;;;;;;;9.52;8.02;;;;;;;;;;4983009;28;20399;-54
2022/05/07 10:35:11;;;;;;;9.93;6.72;;;;;;;;;;4982311;28;20470;-55
2022/05/07 10:37:41;;;;;;;8.63;7.18;;;;;;;;;;4983043;28;20394;-55
2022/05/07 10:43:01;;;;;;;8.30;6.10;;;;;;;;;;4984689;28;20452;-54
2022/05/07 10:45:43;;;;;;;9.88;6.57;;;;;;;;;;4991071;28;20436;-56
2022/05/07 10:48:18;;;;;;;8.85;6.45;;;;;;;;;;4990058;28;20409;-57
2022/05/07 10:50:51;;;;;;;9.32;6.90;;;;;;;;;;4990021;28;20427;-53
2022/05/07 10:53:18;;;;;;;8.98;6.90;;;;;;;;;;4989343;28;20690;-60
2022/05/07 10:55:44;;;;;;;8.30;5.80;;;;;;;;;;4986447;28;20460;-60
2022/05/07 10:58:10;;;;;;;7.60;5.70;;;;;;;;;;4986869;28;20398;-60
2022/05/07 11:00:36;;;;;;;7.43;6.05;;;;;;;;;;4985200;28;20498;-59
2022/05/07 11:03:02;;;;;;;5.85;5.03;;;;;;;;;;4986264;28;20394;-60
2022/05/07 11:05:32;;;;;;;6.40;5.20;;;;;;;;;;4989027;28;20915;-61
2022/05/07 11:07:59;;;;;;;5.78;5.00;;;;;;;;;;4988158;28;20418;-59
2022/05/07 11:10:25;;;;;;;6.50;4.85;;;;;;;;;;4989057;28;20386;-57
2022/05/07 11:12:51;;;;;;;6.22;5.15;;;;;;;;;;4994119;28;20382;-58
2022/05/07 11:15:24;;;;;;;7.85;5.90;;;;;;;;;;4993430;28;20397;-57
2022/05/07 11:17:50;;;;;;;8.00;6.50;;;;;;;;;;4993606;28;20814;-55
2022/05/07 11:20:27;;;;;;;12.95;7.72;;;;;;;;;;4995619;28;20397;-53
2022/05/07 11:23:00;;;;;;;7.88;5.90;;;;;;;;;;4995016;28;20406;-55
2022/05/07 11:25:27;;;;;;;7.43;5.40;;;;;;;;;;4994122;28;20425;-51
2022/05/07 11:27:53;;;;;;;6.90;5.60;;;;;;;;;;4995334;28;20442;-51
2022/05/07 11:30:19;;;;;;;8.87;5.70;;;;;;;;;;4994009;28;20386;-57
2022/05/07 11:32:48;;;;;;;7.72;5.65;;;;;;;;;;4993425;28;20386;-57
2022/05/07 11:41:23;;;;;;;6.85;4.90;;;;;;;;;;4993875;28;20362;-57
2022/05/07 11:46:52;;;;;;;7.30;5.68;;;;;;;;;;4993258;28;20473;-55
2022/05/07 11:49:33;;;;;;;8.93;5.95;;;;;;;;;;4992470;28;20905;-55
2022/05/07 11:52:10;;;;;;;9.18;6.38;;;;;;;;;;4993383;28;20453;-57
2022/05/07 11:54:36;;;;;;;8.10;6.53;;;;;;;;;;4995457;28;21013;-52
2022/05/07 11:57:02;;;;;;;8.87;5.87;;;;;;;;;;4993542;28;20387;-57
2022/05/07 11:59:28;;;;;;;7.83;6.03;;;;;;;;;;4992235;28;20390;-55
2022/05/07 12:01:55;;;;;;;6.10;4.53;;;;;;;;;;4991085;28;20477;-56
2022/05/07 12:04:21;;;;;;;6.05;4.60;;;;;;;;;;4993089;28;20398;-57
2022/05/07 12:06:57;;;;;;;6.35;3.97;;;;;;;;;;4992536;28;20405;-55
2022/05/07 12:09:33;;;;;;;7.25;5.07;;;;;;;;;;4994081;28;20421;-54
2022/05/07 12:11:59;;;;;;;9.45;6.65;;;;;;;;;;4992240;28;20464;-57
2022/05/07 12:14:25;;;;;;;9.10;6.83;;;;;;;;;;4992575;28;20810;-53
2022/05/07 12:19:35;;;;;;;9.77;6.40;;;;;;;;;;4992878;28;20386;-58
2022/05/07 12:30:29;;;;;;;9.02;5.43;;;;;;;;;;4993429;28;20501;-58
2022/05/07 12:32:55;;;;;;;8.93;5.47;;;;;;;;;;4993259;28;20477;-57
2022/05/07 12:35:21;;;;;;;7.20;5.07;;;;;;;;;;4993517;28;20821;-55
2022/05/07 12:37:47;;;;;;;5.88;4.15;;;;;;;;;;4992422;28;20395;-57
2022/05/07 12:40:16;;;;;;;9.00;5.15;;;;;;;;;;4992594;28;20387;-54
2022/05/07 12:42:51;;;;;;;6.10;4.32;;;;;;;;;;4992705;28;20386;-57
2022/05/07 12:45:17;;;;;;;8.30;4.90;;;;;;;;;;4993839;28;20382;-56
2022/05/07 12:47:43;;;;;;;7.67;4.90;;;;;;;;;;4993107;28;20433;-57
2022/05/07 12:50:09;;;;;;;7.20;4.53;;;;;;;;;;4991715;28;20488;-54
2022/05/07 12:52:35;;;;;;;7.33;4.73;;;;;;;;;;4989999;28;20533;-57
2022/05/07 12:55:01;;;;;;;4.77;3.60;;;;;;;;;;4990338;28;20497;-55
2022/05/07 12:57:28;;;;;;;4.40;4.00;;;;;;;;;;4990769;28;20398;-54
2022/05/07 12:59:55;;;;;;;6.63;4.20;;;;;;;;;;4992082;28;20391;-54
2022/05/07 13:02:21;;;;;;;6.27;4.30;;;;;;;;;;4991976;28;21060;-57
2022/05/07 13:04:47;;;;;;;6.87;4.50;;;;;;;;;;4990418;28;20395;-54
2022/05/07 13:07:13;;;;;;;4.77;2.90;;;;;;;;;;4990006;28;20750;-56
2022/05/07 13:09:39;;;;;;;5.37;3.53;;;;;;;;;;4988969;28;20513;-52
2022/05/07 13:12:06;;;;;;;6.00;3.57;;;;;;;;;;4986131;28;20382;-57
2022/05/07 13:14:33;;;;;;;6.03;3.80;;;;;;;;;;4985773;28;20417;-58
2022/05/07 13:16:59;;;;;;;3.22;2.80;;;;;;;;;;4986730;28;20378;-55
2022/05/07 13:19:26;;;;;;;4.35;2.70;;;;;;;;;;4987891;28;20398;-54
2022/05/07 13:21:52;;;;;;;3.53;2.33;;;;;;;;;;4988406;28;20389;-56
2022/05/07 13:24:18;;;;;;;5.85;3.47;;;;;;;;;;4986985;28;20398;-52
2022/05/07 13:26:44;;;;;;;5.28;3.83;;;;;;;;;;4987213;28;20396;-53
2022/05/07 13:29:11;;;;;;;7.40;3.40;;;;;;;;;;4986462;28;20826;-54
2022/05/07 13:31:37;;;;;;;4.47;3.67;;;;;;;;;;4989005;28;20382;-53
2022/05/07 13:34:04;;;;;;;4.35;3.40;;;;;;;;;;4988195;28;20868;-54
2022/05/07 13:36:30;;;;;;;4.97;3.20;;;;;;;;;;4989549;28;20418;-54
2022/05/07 13:38:58;;;;;;;3.38;2.47;;;;;;;;;;4988173;28;20481;-54
2022/05/07 13:41:26;;;;;;;5.07;2.55;;;;;;;;;;4987748;28;20382;-55
2022/05/07 13:43:54;;;;;;;3.15;2.15;;;;;;;;;;4983079;28;20390;-51
2022/05/07 13:46:21;;;;;;;3.33;2.35;;;;;;;;;;4982899;28;20477;-53
2022/05/07 13:48:47;;;;;;;4.53;2.55;;;;;;;;;;4984900;28;20493;-52
2022/05/07 13:51:13;;;;;;;3.43;2.10;;;;;;;;;;5003636;28;20407;-56
2022/05/07 13:53:39;;;;;;;3.95;2.75;;;;;;;;;;5007901;28;20388;-56
2022/05/07 13:56:06;;;;;;;5.30;2.90;;;;;;;;;;5010144;28;20381;-55
2022/05/07 13:58:33;;;;;;;3.07;2.53;;;;;;;;;;4992755;28;20389;-55
2022/05/07 14:00:58;;;;;;;2.75;2.20;;;;;;;;;;4993073;28;20392;-57
2022/05/07 14:03:24;;;;;;;3.38;2.10;;;;;;;;;;4992061;28;20463;-55
2022/05/07 14:05:51;;;;;;;3.90;2.20;;;;;;;;;;4990758;28;20392;-57
2022/05/07 14:08:18;;;;;;;3.58;2.08;;;;;;;;;;5009137;28;20476;-57
2022/05/07 14:10:44;;;;;;;2.92;2.10;;;;;;;;;;4994193;28;20389;-56
2022/05/07 14:13:10;;;;;;;7.38;2.50;;;;;;;;;;4995511;28;20446;-51
2022/05/07 14:15:36;;;;;;;3.67;2.50;;;;;;;;;;4995213;28;20385;-56
2022/05/07 14:18:02;;;;;;;4.40;2.50;;;;;;;;;;4993471;28;20619;-54
2022/05/07 14:20:28;;;;;;;5.13;2.63;;;;;;;;;;4992641;28;20400;-56
2022/05/07 14:22:54;;;;;;;4.83;2.93;;;;;;;;;;5010462;28;20397;-56
2022/05/07 14:25:20;;;;;;;6.70;2.90;;;;;;;;;;5007480;28;20477;-53
2022/05/07 14:27:46;;;;;;;7.30;3.60;;;;;;;;;;5002060;28;20385;-55
2022/05/07 14:30:12;;;;;;;4.95;3.40;;;;;;;;;;4984988;28;20404;-56
2022/05/07 14:32:38;;;;;;;5.57;3.40;;;;;;;;;;4985365;28;20392;-57
2022/05/07 14:35:06;;;;;;;3.10;2.80;;;;;;;;;;5004520;28;20878;-54
2022/05/07 14:37:32;;;;;;;5.07;2.95;;;;;;;;;;4987331;28;20432;-57
2022/05/07 14:39:58;;;;;;;6.90;2.90;;;;;;;;;;5002836;28;20505;-56
2022/05/07 14:42:24;;;;;;;6.30;3.03;;;;;;;;;;4984713;28;20389;-55
2022/05/07 14:44:50;;;;;;;4.15;3.25;;;;;;;;;;5003244;28;20800;-52
2022/05/07 14:47:16;;;;;;;4.15;2.83;;;;;;;;;;5006755;28;20411;-52
2022/05/07 14:49:42;;;;;;;5.50;3.55;;;;;;;;;;4985710;28;20424;-54
2022/05/07 14:52:08;;;;;;;3.95;3.20;;;;;;;;;;4986368;28;20391;-55
2022/05/07 14:54:34;;;;;;;4.72;3.35;;;;;;;;;;4988086;28;20722;-55
2022/05/07 14:57:00;;;;;;;4.20;2.95;;;;;;;;;;4986975;28;20802;-54
2022/05/07 14:59:26;;;;;;;4.88;2.95;;;;;;;;;;4988755;28;20519;-51
2022/05/07 15:01:53;;;;;;;4.03;2.97;;;;;;;;;;4989817;28;20386;-51
2022/05/07 15:04:19;;;;;;;4.90;2.95;;;;;;;;;;4988706;28;20405;-53
2022/05/07 15:07:10;;;;;;;4.03;2.75;;;;;;;;;;4989894;28;20398;-52
2022/05/07 15:12:38;;;;;;;4.30;2.40;;;;;;;;;;4986621;28;20437;-56
2022/05/07 15:15:04;;;;;;;4.27;2.57;;;;;;;;;;4984551;28;20875;-57
2022/05/07 15:17:30;;;;;;;4.82;2.70;;;;;;;;;;4984042;28;20497;-56
2022/05/07 15:20:04;;;;;;;5.93;2.83;;;;;;;;;;4985823;28;20877;-53
2022/05/07 15:22:30;;;;;;;4.70;2.83;;;;;;;;;;4984848;28;20414;-55
2022/05/07 15:24:56;;;;;;;7.78;3.28;;;;;;;;;;4985159;28;20421;-52
2022/05/07 15:27:22;;;;;;;5.32;3.83;;;;;;;;;;4985121;28;20390;-53
2022/05/07 15:29:48;;;;;;;6.68;3.72;;;;;;;;;;4983958;28;20476;-56
2022/05/07 15:37:50;;;;;;;6.63;4.10;;;;;;;;;;4986606;28;20386;-53
2022/05/07 15:40:19;;;;;;;6.38;4.38;;;;;;;;;;4985763;28;20763;-56
2022/05/07 15:48:56;;;;;;;7.15;5.65;;;;;;;;;;4992860;28;20505;-54
2022/05/07 15:51:35;;;;;;;6.97;4.90;;;;;;;;;;4989295;28;20407;-56